createdAt,value
2023-04-09T00:01:06.944Z,14.40
2023-04-09T00:03:36.259Z,15.40
2023-04-09T00:06:04.217Z,15.30
2023-04-09T00:08:31.784Z,19.05
2023-04-09T00:10:59.547Z,18.73
2023-04-09T00:13:38.732Z,16.15
2023-04-09T00:16:07.773Z,18.67
2023-04-09T00:18:35.292Z,16.20
2023-04-09T00:21:02.294Z,21.05
2023-04-09T00:23:29.534Z,20.58
2023-04-09T00:25:56.441Z,20.23
2023-04-09T00:28:23.707Z,21.80
2023-04-09T00:30:50.649Z,21.97
2023-04-09T00:33:17.920Z,19.92
2023-04-09T00:35:44.834Z,18.02
2023-04-09T00:38:12.093Z,15.90
2023-04-09T00:40:39.230Z,17.00
2023-04-09T00:43:06.922Z,15.70
2023-04-09T00:45:33.966Z,15.65
2023-04-09T00:48:01.872Z,17.33
2023-04-09T00:50:28.909Z,16.73
2023-04-09T00:52:56.432Z,14.63
2023-04-09T00:55:23.793Z,17.47
2023-04-09T00:57:51.094Z,16.17
2023-04-09T01:00:18.109Z,15.30
2023-04-09T01:02:46.641Z,14.85
2023-04-09T01:05:15.154Z,17.75
2023-04-09T01:07:45.759Z,16.87
2023-04-09T01:10:27.484Z,17.95
2023-04-09T01:13:07.976Z,17.40
2023-04-09T01:15:42.242Z,16.58
2023-04-09T01:18:23.275Z,18.95
2023-04-09T01:20:59.349Z,18.57
2023-04-09T01:23:44.519Z,15.73
2023-04-09T01:26:29.273Z,16.30
2023-04-09T01:28:57.802Z,20.88
2023-04-09T01:31:32.004Z,20.30
2023-04-09T01:34:01.287Z,31.40
2023-04-09T01:36:31.574Z,32.65
2023-04-09T01:39:01.996Z,41.50
2023-04-09T01:41:32.637Z,40.50
2023-04-09T01:44:02.409Z,42.35
2023-04-09T01:46:30.221Z,44.57
2023-04-09T01:48:57.922Z,46.50
2023-04-09T01:51:25.303Z,42.83
2023-04-09T01:53:52.544Z,41.88
2023-04-09T01:56:19.510Z,38.00
2023-04-09T01:58:47.013Z,50.90
2023-04-09T02:01:21.213Z,35.03
2023-04-09T02:03:57.033Z,29.55
2023-04-09T02:06:46.894Z,30.40
2023-04-09T02:09:18.464Z,44.50
2023-04-09T02:11:48.761Z,31.30
2023-04-09T02:14:16.710Z,29.40
2023-04-09T02:16:43.811Z,30.73
2023-04-09T02:19:11.849Z,28.92
2023-04-09T02:21:38.765Z,36.65
2023-04-09T02:24:06.229Z,45.53
2023-04-09T02:26:33.201Z,38.97
2023-04-09T02:29:00.483Z,30.77
2023-04-09T02:31:27.411Z,29.85
2023-04-09T02:33:54.726Z,40.75
2023-04-09T02:36:22.052Z,34.97
2023-04-09T02:38:49.395Z,35.10
2023-04-09T02:41:16.871Z,33.30
2023-04-09T02:43:44.116Z,30.20
2023-04-09T02:46:11.232Z,36.03
2023-04-09T02:48:38.917Z,32.37
2023-04-09T02:51:06.549Z,32.85
2023-04-09T02:53:33.811Z,27.50
2023-04-09T02:56:00.792Z,34.13
2023-04-09T02:58:28.048Z,32.28
2023-04-09T03:00:54.974Z,44.50
2023-04-09T03:03:22.420Z,34.83
2023-04-09T03:05:49.553Z,28.70
2023-04-09T03:08:16.875Z,33.05
2023-04-09T03:10:43.779Z,24.75
2023-04-09T03:13:11.059Z,28.17
2023-04-09T03:15:37.955Z,23.60
2023-04-09T03:18:05.322Z,25.00
2023-04-09T03:20:32.509Z,24.92
2023-04-09T03:22:59.679Z,21.35
2023-04-09T03:25:34.654Z,20.70
2023-04-09T03:28:10.151Z,21.58
2023-04-09T03:30:41.950Z,18.70
2023-04-09T03:33:09.537Z,17.70
2023-04-09T03:35:47.053Z,17.70
2023-04-09T03:38:16.358Z,13.17
2023-04-09T03:40:43.309Z,16.65
2023-04-09T03:43:10.694Z,14.27
2023-04-09T03:45:40.460Z,14.82
2023-04-09T03:48:18.925Z,16.05
2023-04-09T03:50:46.243Z,17.33
2023-04-09T03:53:16.906Z,17.40
2023-04-09T03:55:45.776Z,18.10
2023-04-09T03:58:20.140Z,16.67
2023-04-09T04:00:47.542Z,17.55
2023-04-09T04:03:37.080Z,15.47
2023-04-09T04:06:10.116Z,17.25
2023-04-09T04:09:03.682Z,18.55
2023-04-09T04:11:47.374Z,19.92
2023-04-09T04:14:15.849Z,17.45
2023-04-09T04:16:46.106Z,17.00
2023-04-09T04:19:17.685Z,21.05
2023-04-09T04:21:48.233Z,18.15
2023-04-09T04:24:16.028Z,17.17
2023-04-09T04:26:42.929Z,22.70
2023-04-09T04:29:13.175Z,20.67
2023-04-09T04:32:08.972Z,21.17
2023-04-09T04:34:38.117Z,18.73
2023-04-09T04:37:19.171Z,16.25
2023-04-09T04:39:47.200Z,15.98
2023-04-09T04:42:16.792Z,17.10
2023-04-09T04:44:45.271Z,19.02
2023-04-09T04:47:25.585Z,16.20
2023-04-09T04:49:53.114Z,17.80
2023-04-09T04:52:21.533Z,18.27
2023-04-09T04:54:52.281Z,20.27
2023-04-09T04:57:22.546Z,20.73
2023-04-09T04:59:50.029Z,18.80
2023-04-09T05:02:17.970Z,19.70
2023-04-09T05:04:57.537Z,24.40
2023-04-09T05:07:33.824Z,28.87
2023-04-09T05:10:01.463Z,24.00
2023-04-09T05:12:34.550Z,26.23
2023-04-09T05:15:03.155Z,27.90
2023-04-09T05:17:30.632Z,33.53
2023-04-09T05:19:58.162Z,28.23
2023-04-09T05:22:36.824Z,28.23
2023-04-09T05:25:05.732Z,42.28
2023-04-09T05:27:36.918Z,44.65
2023-04-09T05:30:05.523Z,38.92
2023-04-09T05:32:32.665Z,32.10
2023-04-09T05:35:00.693Z,27.40
2023-04-09T05:37:30.026Z,23.50
2023-04-09T05:39:57.577Z,23.95
2023-04-09T05:42:25.098Z,24.42
2023-04-09T05:44:59.887Z,26.10
2023-04-09T05:47:26.869Z,26.50
2023-04-09T05:50:15.184Z,24.30
2023-04-09T05:52:42.093Z,26.77
2023-04-09T05:55:11.137Z,25.13
2023-04-09T05:57:45.584Z,29.13
2023-04-09T06:00:13.736Z,26.13
2023-04-09T06:02:48.379Z,27.52
2023-04-09T06:05:15.691Z,25.35
2023-04-09T06:07:42.564Z,27.27
2023-04-09T06:10:09.773Z,27.23
2023-04-09T06:12:36.673Z,25.02
2023-04-09T06:15:05.743Z,21.02
2023-04-09T06:17:33.427Z,24.15
2023-04-09T06:20:00.722Z,23.50
2023-04-09T06:22:27.584Z,22.50
2023-04-09T06:24:54.806Z,24.05
2023-04-09T06:27:22.966Z,20.98
2023-04-09T06:29:50.198Z,20.58
2023-04-09T06:32:17.165Z,20.35
2023-04-09T06:34:44.412Z,20.80
2023-04-09T06:37:11.647Z,18.02
2023-04-09T06:39:40.468Z,19.05
2023-04-09T06:42:09.498Z,18.98
2023-04-09T06:44:49.720Z,17.85
2023-04-09T06:47:16.600Z,17.60
2023-04-09T06:49:43.864Z,16.92
2023-04-09T06:52:10.769Z,18.25
2023-04-09T06:54:37.973Z,18.45
2023-04-09T06:57:07.008Z,18.50
2023-04-09T06:59:34.474Z,17.50
2023-04-09T07:02:01.413Z,17.02
2023-04-09T07:04:28.751Z,16.92
2023-04-09T07:06:57.031Z,17.92
2023-04-09T07:09:24.243Z,15.88
2023-04-09T07:11:51.158Z,16.30
2023-04-09T07:14:18.364Z,17.60
2023-04-09T07:16:46.709Z,15.75
2023-04-09T07:19:13.978Z,18.90
2023-04-09T07:21:40.911Z,17.65
2023-04-09T07:24:08.162Z,18.17
2023-04-09T07:26:35.223Z,19.13
2023-04-09T07:29:03.984Z,19.05
2023-04-09T07:31:33.347Z,17.08
2023-04-09T07:34:02.135Z,19.25
2023-04-09T07:36:29.130Z,20.33
2023-04-09T07:38:56.348Z,18.42
2023-04-09T07:41:23.272Z,17.27
2023-04-09T07:43:50.490Z,20.60
2023-04-09T07:46:22.048Z,16.77
2023-04-09T07:48:50.535Z,18.40
2023-04-09T07:51:17.851Z,20.33
2023-04-09T07:53:45.224Z,19.20
2023-04-09T07:56:12.436Z,18.70
2023-04-09T07:58:39.624Z,17.40
2023-04-09T08:01:06.609Z,15.03
2023-04-09T08:03:34.113Z,17.27
2023-04-09T08:06:01.579Z,17.05
2023-04-09T08:08:28.823Z,15.65
2023-04-09T08:10:55.796Z,17.40
2023-04-09T08:13:26.337Z,14.20
2023-04-09T08:15:53.280Z,18.10
2023-04-09T08:18:20.706Z,14.93
2023-04-09T08:20:47.692Z,15.10
2023-04-09T08:23:14.986Z,14.95
2023-04-09T08:25:41.962Z,15.93
2023-04-09T08:28:09.219Z,14.77
2023-04-09T08:30:36.553Z,15.52
2023-04-09T08:33:03.963Z,15.02
2023-04-09T08:35:31.429Z,16.15
2023-04-09T08:37:59.713Z,16.13
2023-04-09T08:40:26.704Z,16.23
2023-04-09T08:42:59.258Z,15.95
2023-04-09T08:45:26.239Z,16.08
2023-04-09T08:47:53.623Z,16.20
2023-04-09T08:50:20.813Z,15.80
2023-04-09T08:52:48.890Z,17.27
2023-04-09T08:55:15.883Z,18.15
2023-04-09T08:57:43.360Z,17.38
2023-04-09T09:00:10.798Z,18.08
2023-04-09T09:02:39.721Z,17.43
2023-04-09T09:05:07.180Z,15.57
2023-04-09T09:07:34.613Z,17.42
2023-04-09T09:10:05.298Z,15.85
2023-04-09T09:12:39.443Z,16.35
2023-04-09T09:15:27.803Z,13.17
2023-04-09T09:17:59.950Z,16.80
2023-04-09T09:20:27.856Z,16.27
2023-04-09T09:22:57.102Z,17.80
2023-04-09T09:25:26.132Z,19.45
2023-04-09T09:27:54.804Z,17.07
2023-04-09T09:30:26.301Z,17.13
2023-04-09T09:33:04.363Z,17.20
2023-04-09T09:35:31.522Z,16.38
2023-04-09T09:38:04.331Z,20.15
2023-04-09T09:40:31.278Z,17.37
2023-04-09T09:42:58.887Z,16.67
2023-04-09T09:45:26.365Z,16.65
2023-04-09T09:47:54.621Z,15.80
2023-04-09T09:50:25.790Z,15.35
2023-04-09T09:53:03.445Z,16.03
2023-04-09T09:55:34.823Z,15.05
2023-04-09T09:58:04.343Z,16.70
2023-04-09T10:00:33.070Z,15.68
2023-04-09T10:03:10.759Z,12.98
2023-04-09T10:05:40.688Z,12.60
2023-04-09T10:08:08.388Z,14.00
2023-04-09T10:10:36.743Z,14.25
2023-04-09T10:13:07.629Z,13.52
2023-04-09T10:15:34.592Z,15.80
2023-04-09T10:18:02.135Z,13.60
2023-04-09T10:21:10.705Z,15.68
2023-04-09T10:23:48.394Z,13.15
2023-04-09T10:26:15.312Z,14.27
2023-04-09T10:28:43.407Z,12.30
2023-04-09T10:31:10.780Z,13.83
2023-04-09T10:33:38.815Z,12.20
2023-04-09T10:36:13.591Z,12.10
2023-04-09T10:38:45.187Z,12.13
2023-04-09T10:41:31.828Z,11.10
2023-04-09T10:43:59.140Z,10.87
2023-04-09T10:46:46.171Z,10.20
2023-04-09T10:49:16.898Z,10.57
2023-04-09T10:51:53.885Z,10.65
2023-04-09T10:54:50.793Z,10.95
2023-04-09T10:57:20.269Z,9.50
2023-04-09T10:59:49.885Z,9.00
2023-04-09T11:03:02.004Z,9.13
2023-04-09T11:05:40.115Z,10.25
2023-04-09T11:08:09.782Z,8.50
2023-04-09T11:10:38.420Z,10.97
2023-04-09T11:13:05.929Z,9.88
2023-04-09T11:15:36.243Z,11.25
2023-04-09T11:18:04.175Z,11.40
2023-04-09T11:20:34.016Z,12.65
2023-04-09T11:23:01.325Z,14.00
2023-04-09T11:25:31.476Z,11.52
2023-04-09T11:27:58.636Z,11.95
2023-04-09T11:30:26.511Z,12.18
2023-04-09T11:32:53.703Z,10.73
2023-04-09T11:35:22.615Z,11.40
2023-04-09T11:37:50.955Z,10.57
2023-04-09T11:40:23.066Z,11.20
2023-04-09T11:42:51.938Z,12.10
2023-04-09T11:45:27.476Z,11.77
2023-04-09T11:47:55.229Z,11.60
2023-04-09T11:50:22.817Z,10.80
2023-04-09T11:52:50.702Z,11.25
2023-04-09T11:55:28.464Z,10.90
2023-04-09T11:58:03.137Z,11.82
2023-04-09T12:00:32.581Z,11.63
2023-04-09T12:03:04.443Z,10.95
2023-04-09T12:05:34.100Z,10.45
2023-04-09T12:08:03.567Z,10.65
2023-04-09T12:10:32.394Z,10.63
2023-04-09T12:13:17.595Z,10.80
2023-04-09T12:15:44.930Z,9.57
2023-04-09T12:18:13.113Z,8.65
2023-04-09T12:20:44.289Z,9.32
2023-04-09T12:23:13.211Z,9.48
2023-04-09T12:25:42.849Z,9.60
2023-04-09T12:28:13.894Z,9.68
2023-04-09T12:30:41.375Z,8.73
2023-04-09T12:33:10.930Z,9.43
2023-04-09T12:35:38.885Z,10.35
2023-04-09T12:38:06.060Z,11.23
2023-04-09T12:40:33.590Z,10.23
2023-04-09T12:43:00.608Z,11.27
2023-04-09T12:45:28.222Z,11.32
2023-04-09T12:47:55.225Z,10.27
2023-04-09T12:50:22.542Z,9.33
2023-04-09T12:52:49.475Z,10.75
2023-04-09T12:55:17.020Z,9.13
2023-04-09T12:57:46.012Z,9.48
2023-04-09T13:00:14.189Z,9.48
2023-04-09T13:02:41.810Z,9.80
2023-04-09T13:05:09.318Z,9.60
2023-04-09T13:07:36.314Z,8.75
2023-04-09T13:10:03.902Z,10.45
2023-04-09T13:12:30.793Z,8.80
2023-04-09T13:14:59.398Z,9.07
2023-04-09T13:17:26.446Z,8.18
2023-04-09T13:19:53.848Z,9.43
2023-04-09T13:22:20.957Z,8.35
2023-04-09T13:24:48.253Z,8.95
2023-04-09T13:27:15.234Z,7.90
2023-04-09T13:29:42.468Z,7.75
2023-04-09T13:32:11.316Z,8.25
2023-04-09T13:34:39.620Z,7.88
2023-04-09T13:37:07.170Z,7.70
2023-04-09T13:39:34.460Z,7.53
2023-04-09T13:42:05.437Z,6.43
2023-04-09T13:44:37.304Z,7.03
2023-04-09T13:47:04.194Z,6.47
2023-04-09T13:49:31.590Z,6.80
2023-04-09T13:51:59.621Z,6.73
2023-04-09T13:54:27.423Z,7.25
2023-04-09T13:56:54.336Z,6.32
2023-04-09T13:59:21.721Z,6.05
2023-04-09T14:01:48.751Z,6.10
2023-04-09T14:04:16.861Z,7.20
2023-04-09T14:06:44.106Z,7.28
2023-04-09T14:09:11.773Z,6.43
2023-04-09T14:11:39.135Z,6.15
2023-04-09T14:14:06.463Z,6.30
2023-04-09T14:16:33.631Z,6.43
2023-04-09T14:19:01.020Z,6.75
2023-04-09T14:21:29.473Z,5.80
2023-04-09T14:23:56.680Z,7.22
2023-04-09T14:26:24.340Z,6.30
2023-04-09T14:28:52.238Z,6.60
2023-04-09T14:31:21.745Z,6.55
2023-04-09T14:33:49.143Z,6.28
2023-04-09T14:36:16.852Z,5.70
2023-04-09T14:38:44.302Z,6.38
2023-04-09T14:41:11.224Z,5.57
2023-04-09T14:43:38.492Z,6.70
2023-04-09T14:46:06.598Z,6.40
2023-04-09T14:48:34.413Z,6.25
2023-04-09T14:51:01.332Z,7.32
2023-04-09T14:53:28.536Z,10.27
2023-04-09T14:55:55.502Z,6.50
2023-04-09T14:58:23.010Z,6.70
2023-04-09T15:00:50.513Z,5.63
2023-04-09T15:03:18.003Z,6.65
2023-04-09T15:05:45.291Z,5.93
2023-04-09T15:08:13.269Z,5.90
2023-04-09T15:10:40.441Z,5.30
2023-04-09T15:13:07.693Z,5.78
2023-04-09T15:15:34.696Z,5.25
2023-04-09T15:18:06.061Z,5.50
2023-04-09T15:20:40.022Z,5.75
2023-04-09T15:23:07.316Z,6.30
2023-04-09T15:25:34.347Z,5.65
2023-04-09T15:28:02.642Z,5.40
2023-04-09T15:30:29.646Z,6.40
2023-04-09T15:32:56.938Z,6.15
2023-04-09T15:35:29.512Z,5.90
2023-04-09T15:37:57.543Z,5.55
2023-04-09T15:40:24.808Z,5.68
2023-04-09T15:42:52.055Z,5.33
2023-04-09T15:45:18.952Z,6.60
2023-04-09T15:47:47.109Z,5.55
2023-04-09T15:50:14.785Z,5.38
2023-04-09T15:52:42.150Z,6.22
2023-04-09T15:55:09.636Z,5.67
2023-04-09T15:57:38.456Z,5.70
2023-04-09T16:00:08.376Z,5.55
2023-04-09T16:02:38.812Z,5.82
2023-04-09T16:05:06.288Z,5.38
2023-04-09T16:07:33.769Z,5.17
2023-04-09T16:10:01.753Z,4.80
2023-04-09T16:12:28.993Z,4.90
2023-04-09T16:14:55.911Z,4.57
2023-04-09T16:17:23.884Z,5.30
2023-04-09T16:19:50.782Z,4.80
2023-04-09T16:22:17.994Z,5.10
2023-04-09T16:24:45.043Z,6.25
2023-04-09T16:27:13.688Z,4.82
2023-04-09T16:29:40.753Z,4.35
2023-04-09T16:32:08.216Z,5.23
2023-04-09T16:34:35.425Z,6.43
2023-04-09T16:37:02.618Z,4.35
2023-04-09T16:39:29.595Z,5.05
2023-04-09T16:41:58.465Z,4.45
2023-04-09T16:44:25.854Z,4.27
2023-04-09T16:46:53.055Z,4.15
2023-04-09T16:49:19.983Z,6.65
2023-04-09T16:51:47.268Z,3.90
2023-04-09T16:54:14.199Z,5.25
2023-04-09T16:56:41.603Z,5.37
2023-04-09T16:59:08.554Z,4.85
2023-04-09T17:01:36.003Z,4.57
2023-04-09T17:04:03.372Z,4.55
2023-04-09T17:06:31.086Z,4.20
2023-04-09T17:08:58.135Z,4.20
2023-04-09T17:11:25.597Z,4.68
2023-04-09T17:13:52.521Z,4.93
2023-04-09T17:16:19.742Z,4.30
2023-04-09T17:18:47.275Z,3.70
2023-04-09T17:21:14.498Z,5.13
2023-04-09T17:23:42.714Z,4.80
2023-04-09T17:26:09.948Z,5.35
2023-04-09T17:28:36.919Z,6.63
2023-04-09T17:31:12.178Z,5.95
2023-04-09T17:33:39.532Z,6.43
2023-04-09T17:36:07.294Z,7.15
2023-04-09T17:38:34.590Z,6.53
2023-04-09T17:41:01.904Z,6.63
2023-04-09T17:43:28.798Z,7.50
2023-04-09T17:45:56.091Z,6.00
2023-04-09T17:48:23.020Z,6.32
2023-04-09T17:50:50.296Z,5.93
2023-04-09T17:53:17.727Z,5.75
2023-04-09T17:55:48.912Z,7.07
2023-04-09T17:58:15.893Z,7.20
2023-04-09T18:00:43.558Z,8.23
2023-04-09T18:03:12.531Z,8.30
2023-04-09T18:05:40.833Z,8.02
2023-04-09T18:08:08.091Z,7.70
2023-04-09T18:10:35.647Z,7.03
2023-04-09T18:13:02.750Z,8.38
2023-04-09T18:15:32.041Z,9.48
2023-04-09T18:17:59.764Z,7.32
2023-04-09T18:20:27.093Z,7.95
2023-04-09T18:22:55.642Z,8.53
2023-04-09T18:25:23.552Z,8.02
2023-04-09T18:27:50.502Z,8.95
2023-04-09T18:30:17.899Z,8.35
2023-04-09T18:32:44.935Z,7.25
2023-04-09T18:35:12.393Z,8.77
2023-04-09T18:37:39.280Z,9.63
2023-04-09T18:40:12.438Z,11.02
2023-04-09T18:42:39.391Z,10.90
2023-04-09T18:45:08.431Z,10.95
2023-04-09T18:47:36.015Z,9.33
2023-04-09T18:50:04.197Z,11.20
2023-04-09T18:52:31.308Z,9.50
2023-04-09T18:54:58.564Z,10.57
2023-04-09T18:57:25.667Z,10.32
2023-04-09T18:59:53.234Z,10.83
2023-04-09T19:02:20.231Z,9.80
2023-04-09T19:04:48.041Z,10.93
2023-04-09T19:07:15.089Z,9.23
2023-04-09T19:09:43.628Z,11.15
2023-04-09T19:12:10.707Z,11.50
2023-04-09T19:14:40.291Z,13.35
2023-04-09T19:17:07.764Z,11.50
2023-04-09T19:19:35.037Z,11.40
2023-04-09T19:22:01.947Z,10.63
2023-04-09T19:24:29.157Z,9.80
2023-04-09T19:26:56.791Z,12.38
2023-04-09T19:29:24.060Z,13.30
2023-04-09T19:31:51.322Z,11.50
2023-04-09T19:34:18.688Z,11.95
2023-04-09T19:36:45.852Z,11.10
2023-04-09T19:39:13.094Z,12.50
2023-04-09T19:41:40.888Z,13.52
2023-04-09T19:44:09.320Z,10.30
2023-04-09T19:46:36.448Z,12.35
2023-04-09T19:49:03.801Z,11.93
2023-04-09T19:51:30.859Z,11.38
2023-04-09T19:53:58.164Z,15.00
2023-04-09T19:56:25.096Z,13.55
2023-04-09T19:58:52.641Z,13.27
2023-04-09T20:01:19.946Z,13.67
2023-04-09T20:03:48.407Z,13.10
2023-04-09T20:06:15.915Z,13.95
2023-04-09T20:08:43.137Z,13.38
2023-04-09T20:11:19.226Z,14.05
2023-04-09T20:13:48.197Z,14.57
2023-04-09T20:16:15.906Z,14.82
2023-04-09T20:18:43.141Z,15.25
2023-04-09T20:21:14.255Z,14.68
2023-04-09T20:23:41.912Z,14.68
2023-04-09T20:26:11.216Z,14.33
2023-04-09T20:28:38.550Z,12.82
2023-04-09T20:31:06.385Z,12.80
2023-04-09T20:33:34.395Z,16.70
2023-04-09T20:36:01.457Z,14.75
2023-04-09T20:38:30.555Z,14.53
2023-04-09T20:40:57.778Z,16.55
2023-04-09T20:43:25.319Z,15.52
2023-04-09T20:45:53.454Z,14.73
2023-04-09T20:48:20.834Z,14.27
2023-04-09T20:50:47.859Z,17.87
2023-04-09T20:53:15.578Z,17.55
2023-04-09T20:55:42.905Z,17.42
2023-04-09T20:58:10.259Z,16.98
2023-04-09T21:00:37.255Z,18.83
2023-04-09T21:03:04.639Z,18.37
2023-04-09T21:05:31.779Z,18.67
2023-04-09T21:07:58.990Z,15.63
2023-04-09T21:10:25.932Z,19.33
2023-04-09T21:12:53.257Z,16.55
2023-04-09T21:15:20.167Z,18.40
2023-04-09T21:17:47.468Z,15.50
2023-04-09T21:20:16.825Z,17.25
2023-04-09T21:22:44.122Z,16.90
2023-04-09T21:25:12.732Z,19.40
2023-04-09T21:27:41.839Z,18.37
2023-04-09T21:30:09.114Z,18.40
2023-04-09T21:32:37.195Z,18.45
2023-04-09T21:35:05.092Z,16.73
2023-04-09T21:37:33.895Z,20.95
2023-04-09T21:40:01.097Z,19.73
2023-04-09T21:42:31.566Z,16.08
2023-04-09T21:44:58.472Z,17.90
2023-04-09T21:47:27.694Z,17.38
2023-04-09T21:49:54.901Z,19.02
2023-04-09T21:52:22.589Z,16.37
2023-04-09T21:54:49.517Z,20.63
2023-04-09T21:57:16.771Z,17.83
2023-04-09T21:59:43.911Z,20.70
2023-04-09T22:02:11.168Z,18.67
2023-04-09T22:04:38.479Z,16.30
2023-04-09T22:07:05.806Z,14.88
2023-04-09T22:09:32.716Z,13.15
2023-04-09T22:11:59.988Z,18.00
2023-04-09T22:14:29.658Z,14.07
2023-04-09T22:16:58.601Z,12.47
2023-04-09T22:19:26.660Z,11.65
2023-04-09T22:21:54.536Z,12.27
2023-04-09T22:24:30.308Z,13.75
2023-04-09T22:26:59.229Z,11.32
2023-04-09T22:29:26.784Z,11.83
2023-04-09T22:31:58.289Z,14.75
2023-04-09T22:34:26.327Z,14.75
2023-04-09T22:36:53.544Z,16.58
2023-04-09T22:39:21.719Z,19.00
2023-04-09T22:41:48.949Z,19.93
2023-04-09T22:44:15.964Z,20.77
2023-04-09T22:46:43.686Z,22.55
2023-04-09T22:49:11.934Z,22.23
2023-04-09T22:51:41.303Z,20.05
2023-04-09T22:54:09.454Z,16.03
2023-04-09T22:56:36.913Z,14.95
2023-04-09T22:59:04.204Z,17.90
2023-04-09T23:01:32.306Z,13.50
2023-04-09T23:03:59.241Z,14.52
2023-04-09T23:06:26.514Z,18.60
2023-04-09T23:08:53.543Z,20.05
2023-04-09T23:11:21.355Z,22.55
2023-04-09T23:13:48.232Z,21.83
2023-04-09T23:16:15.581Z,21.00
2023-04-09T23:18:42.537Z,20.20
2023-04-09T23:21:10.723Z,23.65
2023-04-09T23:23:38.714Z,20.17
2023-04-09T23:26:06.473Z,20.33
2023-04-09T23:28:33.444Z,22.60
2023-04-09T23:31:00.838Z,20.60
2023-04-09T23:33:27.842Z,20.95
2023-04-09T23:35:55.194Z,19.30
2023-04-09T23:38:22.193Z,21.50
2023-04-09T23:40:49.814Z,20.45
2023-04-09T23:43:16.980Z,18.10
2023-04-09T23:45:44.575Z,21.85
2023-04-09T23:48:12.461Z,15.45
2023-04-09T23:50:43.254Z,21.58
2023-04-09T23:53:11.107Z,16.60
2023-04-09T23:55:38.703Z,16.10
2023-04-09T23:58:05.723Z,19.17
